Time;durP1;ratioP1;P1;durP2;ratioP2;P2;SDS_P1;SDS_P2;PMS_P1;PMS_P2;Temp;Humidity;BMP_temperature;BMP_pressure;BME280_temperature;BME280_humidity;BME280_pressure;Samples;Min_cycle;Max_cycle;Signal;HPM_P1;HPM_P2
2023/03/20 00:01:18;;;;;;;33.30;16.23;;;7.10;99.90;;;;;;4981518;28;37285;-78
2023/03/20 00:03:45;;;;;;;34.43;15.77;;;7.00;99.90;;;;;;4960997;28;37780;-78
2023/03/20 00:06:20;;;;;;;36.20;16.13;;;7.00;99.90;;;;;;4966401;28;39064;-78
2023/03/20 00:08:48;;;;;;;37.10;16.90;;;6.90;99.90;;;;;;4974642;28;38027;-78
2023/03/20 00:11:28;;;;;;;37.27;17.47;;;6.90;99.90;;;;;;4976521;28;37440;-78
2023/03/20 00:13:57;;;;;;;40.60;18.77;;;6.90;99.90;;;;;;5004389;28;38196;-78
2023/03/20 00:16:28;;;;;;;39.53;19.23;;;6.80;99.90;;;;;;4965618;28;37595;-78
2023/03/20 00:18:55;;;;;;;33.87;18.00;;;6.80;99.90;;;;;;4983567;28;38393;-78
2023/03/20 00:21:21;;;;;;;39.80;19.10;;;6.70;99.90;;;;;;4986129;28;38382;-78
2023/03/20 00:23:48;;;;;;;37.50;18.50;;;6.70;99.90;;;;;;5004797;28;37819;-79
2023/03/20 00:26:17;;;;;;;42.90;19.60;;;6.70;99.90;;;;;;4976845;28;37671;-78
2023/03/20 00:28:47;;;;;;;41.83;21.50;;;6.70;99.90;;;;;;4973953;28;38263;-78
2023/03/20 00:31:39;;;;;;;38.97;19.47;;;6.60;99.90;;;;;;4964058;28;36338;-78
2023/03/20 00:34:11;;;;;;;40.97;20.47;;;6.60;99.90;;;;;;4966941;28;37537;-78
2023/03/20 00:36:38;;;;;;;31.88;17.92;;;6.60;99.90;;;;;;4977666;28;38625;-78
2023/03/20 00:39:04;;;;;;;33.10;19.27;;;6.60;99.90;;;;;;4975239;28;37374;-78
2023/03/20 00:41:52;;;;;;;36.10;19.47;;;6.60;99.90;;;;;;5007611;28;36138;-78
2023/03/20 00:44:18;;;;;;;38.40;20.60;;;6.60;99.90;;;;;;4970041;28;37805;-78
2023/03/20 00:46:46;;;;;;;40.40;21.27;;;6.60;99.90;;;;;;4985989;28;38146;-78
2023/03/20 00:49:12;;;;;;;33.20;18.60;;;6.60;99.90;;;;;;4968723;28;36859;-78
2023/03/20 00:51:38;;;;;;;37.23;21.47;;;6.60;99.90;;;;;;4976456;28;36466;-77
2023/03/20 00:54:12;;;;;;;37.97;20.83;;;6.60;99.90;;;;;;4975292;28;37908;-78
2023/03/20 00:57:01;;;;;;;46.63;22.33;;;6.70;99.90;;;;;;4982848;28;37967;-78
2023/03/20 00:59:35;;;;;;;39.57;21.63;;;6.70;99.90;;;;;;4977277;28;46778;-78
2023/03/20 01:02:01;;;;;;;43.63;21.67;;;6.70;99.90;;;;;;4980960;28;38099;-78
2023/03/20 01:04:36;;;;;;;36.10;22.37;;;6.80;99.90;;;;;;4990912;28;48964;-78
2023/03/20 01:07:06;;;;;;;40.23;21.70;;;6.70;99.90;;;;;;4974509;28;37548;-78
2023/03/20 01:09:32;;;;;;;35.10;20.93;;;6.80;99.90;;;;;;4983039;28;37277;-78
2023/03/20 01:11:59;;;;;;;39.47;20.93;;;6.70;99.90;;;;;;4997269;28;37745;-77
2023/03/20 01:14:26;;;;;;;32.60;20.73;;;6.80;99.90;;;;;;5018587;28;38008;-78
2023/03/20 01:16:52;;;;;;;35.70;19.53;;;6.70;99.90;;;;;;4988734;28;37156;-78
2023/03/20 01:19:18;;;;;;;40.17;21.57;;;6.70;99.90;;;;;;5000138;28;37968;-79
2023/03/20 01:21:44;;;;;;;36.77;18.70;;;6.70;99.90;;;;;;4982043;28;35199;-79
2023/03/20 01:24:10;;;;;;;36.57;19.00;;;6.70;99.90;;;;;;5018745;28;38002;-79
2023/03/20 01:26:42;;;;;;;45.50;21.03;;;6.70;99.90;;;;;;4990633;28;38532;-78
2023/03/20 01:29:21;;;;;;;32.83;19.90;;;6.70;99.90;;;;;;5004531;28;37766;-78
2023/03/20 01:31:48;;;;;;;34.03;18.60;;;6.70;99.90;;;;;;4997237;28;37279;-78
2023/03/20 01:34:17;;;;;;;33.37;18.23;;;6.70;99.90;;;;;;4987881;28;38939;-78
2023/03/20 01:36:50;;;;;;;42.80;20.60;;;6.70;99.90;;;;;;5005770;28;38338;-78
2023/03/20 01:39:20;;;;;;;38.40;19.67;;;6.70;99.90;;;;;;4969300;28;38055;-79
2023/03/20 01:41:47;;;;;;;39.50;20.00;;;6.70;99.90;;;;;;4988692;28;36580;-79
2023/03/20 01:44:23;;;;;;;35.97;18.97;;;6.70;99.90;;;;;;4983645;28;37755;-77
2023/03/20 01:46:51;;;;;;;42.83;18.17;;;6.70;99.90;;;;;;4977012;28;37332;-78
2023/03/20 01:49:20;;;;;;;36.67;19.40;;;6.70;99.90;;;;;;4993806;28;38691;-78
2023/03/20 01:51:48;;;;;;;41.20;18.80;;;6.80;99.90;;;;;;5003740;28;37277;-78
2023/03/20 01:54:18;;;;;;;26.17;17.17;;;6.80;99.90;;;;;;4974153;28;37698;-78
2023/03/20 01:56:53;;;;;;;31.33;17.37;;;6.80;99.90;;;;;;5003183;28;37738;-78
2023/03/20 01:59:43;;;;;;;36.77;17.93;;;6.80;99.90;;;;;;4975700;28;39742;-78
2023/03/20 02:02:16;;;;;;;31.90;16.83;;;6.80;99.90;;;;;;5366577;23;38621;-81
2023/03/20 02:04:46;;;;;;;39.17;18.42;;;6.80;99.90;;;;;;4965796;28;38025;-79
2023/03/20 02:07:17;;;;;;;33.03;16.73;;;6.80;99.90;;;;;;4970350;28;37405;-81
2023/03/20 02:09:45;;;;;;;34.03;18.13;;;6.80;99.90;;;;;;4988578;28;37968;-80
2023/03/20 02:12:11;;;;;;;32.50;17.80;;;6.80;99.90;;;;;;4955980;28;37391;-80
2023/03/20 02:14:37;;;;;;;29.70;16.17;;;6.80;99.90;;;;;;4987862;28;37667;-78
2023/03/20 02:17:06;;;;;;;28.63;16.27;;;6.80;99.90;;;;;;4981506;28;39453;-78
2023/03/20 02:19:41;;;;;;;27.50;15.83;;;6.80;99.90;;;;;;4964701;28;37011;-79
2023/03/20 02:22:24;;;;;;;31.60;15.27;;;6.80;99.90;;;;;;4980818;28;36176;-78
2023/03/20 02:25:01;;;;;;;29.88;15.52;;;6.80;99.90;;;;;;4962882;28;38630;-79
2023/03/20 02:27:55;;;;;;;28.37;14.33;;;6.70;99.90;;;;;;4967978;28;38745;-79
2023/03/20 02:30:50;;;;;;;25.07;14.27;;;6.70;99.90;;;;;;4966117;28;37001;-79
2023/03/20 02:33:38;;;;;;;25.27;14.30;;;6.70;99.90;;;;;;4961460;28;36252;-79
2023/03/20 02:36:18;;;;;;;25.80;14.37;;;6.70;99.90;;;;;;4975466;28;39602;-79
2023/03/20 02:38:59;;;;;;;24.57;14.63;;;6.70;99.90;;;;;;4964521;28;37539;-78
2023/03/20 02:41:31;;;;;;;28.77;15.43;;;6.70;99.90;;;;;;4960800;28;36946;-79
2023/03/20 02:44:22;;;;;;;29.95;14.70;;;6.70;99.90;;;;;;4989045;28;38019;-79
2023/03/20 02:46:56;;;;;;;26.87;15.07;;;6.70;99.90;;;;;;4968812;28;47152;-78
2023/03/20 02:49:52;;;;;;;27.17;16.00;;;6.70;99.90;;;;;;4964665;28;39089;-79
2023/03/20 02:52:31;;;;;;;21.60;14.97;;;6.70;99.90;;;;;;4971865;28;37406;-79
2023/03/20 02:55:28;;;;;;;29.57;15.57;;;6.70;99.90;;;;;;4969429;28;36811;-79
2023/03/20 02:58:15;;;;;;;25.37;15.63;;;6.80;99.90;;;;;;4982259;28;47259;-79
2023/03/20 03:00:56;;;;;;;26.63;15.23;;;6.70;99.90;;;;;;4986371;28;48494;-79
2023/03/20 03:03:37;;;;;;;33.00;15.77;;;6.70;99.90;;;;;;4970991;28;38866;-79
2023/03/20 03:06:16;;;;;;;25.77;16.50;;;6.70;99.90;;;;;;4970837;28;37822;-79
2023/03/20 03:08:48;;;;;;;24.30;15.80;;;6.70;99.90;;;;;;4969698;28;37556;-80
2023/03/20 03:11:16;;;;;;;27.60;15.48;;;6.70;99.90;;;;;;4988763;28;38655;-79
2023/03/20 03:13:50;;;;;;;29.47;16.50;;;6.80;99.90;;;;;;4985283;28;38054;-79
2023/03/20 03:16:26;;;;;;;33.60;16.97;;;6.80;99.90;;;;;;4970549;28;36286;-79
2023/03/20 03:19:06;;;;;;;27.03;16.70;;;6.70;99.90;;;;;;4989590;28;39324;-79
2023/03/20 03:21:35;;;;;;;34.43;17.00;;;6.70;99.90;;;;;;4964417;28;47968;-80
2023/03/20 03:24:03;;;;;;;32.53;15.97;;;6.80;99.90;;;;;;4986337;28;38356;-79
2023/03/20 03:26:37;;;;;;;28.93;15.50;;;6.80;99.90;;;;;;4992849;28;36896;-78
2023/03/20 03:29:10;;;;;;;26.70;14.63;;;6.70;99.90;;;;;;4992327;28;39526;-79
2023/03/20 03:31:37;;;;;;;27.03;15.20;;;6.80;99.90;;;;;;4999580;28;37452;-79
2023/03/20 03:34:04;;;;;;;30.70;15.90;;;6.80;99.90;;;;;;4965588;28;37235;-79
2023/03/20 03:36:45;;;;;;;25.40;15.17;;;6.80;99.90;;;;;;4969645;28;36053;-79
2023/03/20 03:39:14;;;;;;;27.90;15.00;;;6.80;99.90;;;;;;4971934;28;38795;-79
2023/03/20 03:41:49;;;;;;;31.13;15.87;;;6.80;99.90;;;;;;4996135;28;38479;-79
2023/03/20 03:44:30;;;;;;;25.70;14.83;;;6.80;99.90;;;;;;4994329;28;38313;-79
2023/03/20 03:46:59;;;;;;;39.10;16.57;;;6.80;99.90;;;;;;4985110;28;37510;-79
2023/03/20 03:49:31;;;;;;;30.30;16.20;;;6.80;99.90;;;;;;4972766;28;37554;-79
2023/03/20 03:52:03;;;;;;;26.10;15.48;;;6.80;99.90;;;;;;4972248;28;39520;-79
2023/03/20 03:54:39;;;;;;;28.47;15.83;;;6.80;99.90;;;;;;4969813;28;47325;-79
2023/03/20 03:57:07;;;;;;;28.47;16.37;;;6.80;99.90;;;;;;4966858;28;36358;-78
2023/03/20 03:59:37;;;;;;;27.53;15.97;;;6.80;99.90;;;;;;4991842;28;39039;-79
2023/03/20 04:02:07;;;;;;;25.50;15.17;;;6.90;99.90;;;;;;4977986;28;37409;-79
2023/03/20 04:04:36;;;;;;;29.13;15.60;;;6.80;99.90;;;;;;4989864;28;37985;-78
2023/03/20 04:07:02;;;;;;;28.73;16.97;;;6.80;99.90;;;;;;4973294;28;36189;-79
2023/03/20 04:09:28;;;;;;;29.97;16.27;;;6.80;99.90;;;;;;4993122;28;39655;-78
2023/03/20 04:11:54;;;;;;;32.53;16.27;;;6.90;99.90;;;;;;4985740;28;38325;-79
2023/03/20 04:14:21;;;;;;;27.77;16.43;;;6.80;99.90;;;;;;4964697;28;36960;-79
2023/03/20 04:16:47;;;;;;;28.87;16.37;;;6.80;99.90;;;;;;4973221;28;38054;-79
2023/03/20 04:19:13;;;;;;;30.30;16.77;;;6.80;99.90;;;;;;4974626;28;38052;-79
2023/03/20 04:21:39;;;;;;;31.30;18.03;;;6.80;99.90;;;;;;4972713;28;39978;-79
2023/03/20 04:24:06;;;;;;;27.57;17.00;;;6.80;99.90;;;;;;4973342;28;36861;-79
2023/03/20 04:26:32;;;;;;;24.83;17.10;;;6.90;99.90;;;;;;4966929;28;36617;-79
2023/03/20 04:28:58;;;;;;;30.37;18.20;;;6.90;99.90;;;;;;4966691;28;37971;-79
2023/03/20 04:31:24;;;;;;;27.77;16.40;;;6.90;99.90;;;;;;4984184;28;37034;-79
2023/03/20 04:33:51;;;;;;;30.37;16.57;;;6.90;99.90;;;;;;4966165;28;38623;-79
2023/03/20 04:36:17;;;;;;;30.00;17.40;;;6.90;99.90;;;;;;4969776;28;36153;-78
2023/03/20 04:38:43;;;;;;;31.40;17.40;;;6.90;99.90;;;;;;4966487;28;38573;-79
2023/03/20 04:41:09;;;;;;;27.23;16.70;;;6.90;99.90;;;;;;4963712;28;38062;-79
2023/03/20 04:43:35;;;;;;;29.20;15.37;;;6.90;99.90;;;;;;4969528;28;36910;-78
2023/03/20 04:46:01;;;;;;;27.53;16.60;;;6.90;99.90;;;;;;4971307;28;36363;-78
2023/03/20 04:48:27;;;;;;;37.33;17.60;;;7.00;99.90;;;;;;4982471;28;46912;-78
2023/03/20 04:50:53;;;;;;;31.07;18.57;;;7.00;99.90;;;;;;4970881;28;37189;-79
2023/03/20 04:53:19;;;;;;;36.10;17.83;;;7.00;99.90;;;;;;4991072;28;39440;-79
2023/03/20 04:55:46;;;;;;;28.23;16.80;;;7.00;99.90;;;;;;4971693;28;36314;-80
2023/03/20 04:58:13;;;;;;;28.93;16.77;;;7.00;99.90;;;;;;4971555;28;39103;-79
2023/03/20 05:00:39;;;;;;;33.07;17.30;;;7.10;99.90;;;;;;4989444;28;38341;-79
2023/03/20 05:03:05;;;;;;;32.77;17.87;;;7.00;99.90;;;;;;4986793;28;38940;-78
2023/03/20 05:05:32;;;;;;;28.17;16.33;;;7.00;99.90;;;;;;4962701;28;36415;-79
2023/03/20 05:07:59;;;;;;;26.83;16.27;;;7.00;99.90;;;;;;4982245;28;38728;-79
2023/03/20 05:10:25;;;;;;;31.67;16.23;;;7.00;99.90;;;;;;4964292;28;37319;-79
2023/03/20 05:12:51;;;;;;;26.73;16.87;;;7.00;99.90;;;;;;4963319;28;37284;-78
2023/03/20 05:15:17;;;;;;;27.30;15.43;;;7.00;99.90;;;;;;4957901;28;37070;-79
2023/03/20 05:17:43;;;;;;;27.27;15.83;;;7.00;99.90;;;;;;4976651;28;38694;-79
2023/03/20 05:20:10;;;;;;;29.87;16.20;;;7.00;99.90;;;;;;4976459;28;38762;-79
2023/03/20 05:22:36;;;;;;;24.20;15.67;;;7.00;99.90;;;;;;4980928;28;40536;-79
2023/03/20 05:25:02;;;;;;;30.07;15.67;;;7.00;99.90;;;;;;4965132;28;36329;-79
2023/03/20 05:27:29;;;;;;;36.07;15.00;;;7.00;99.90;;;;;;4981404;28;38746;-79
2023/03/20 05:29:55;;;;;;;32.50;15.03;;;7.00;99.90;;;;;;4969565;28;37484;-79
2023/03/20 05:32:21;;;;;;;28.27;14.27;;;7.00;99.90;;;;;;4966765;28;37062;-79
2023/03/20 05:34:47;;;;;;;26.53;14.17;;;7.10;99.90;;;;;;4960570;28;37272;-80
2023/03/20 05:37:13;;;;;;;27.27;13.67;;;7.10;99.90;;;;;;4982243;28;37478;-79
2023/03/20 05:39:40;;;;;;;26.60;12.70;;;7.10;99.90;;;;;;4964027;28;37568;-80
2023/03/20 05:42:06;;;;;;;25.37;13.70;;;7.10;99.90;;;;;;4978383;28;38889;-80
2023/03/20 05:44:32;;;;;;;22.90;12.67;;;7.10;99.90;;;;;;4983123;28;37321;-79
2023/03/20 05:46:58;;;;;;;22.77;11.70;;;7.10;99.90;;;;;;4961918;28;37498;-80
2023/03/20 05:49:24;;;;;;;21.47;11.00;;;7.20;99.90;;;;;;4984178;28;38447;-79
2023/03/20 05:51:50;;;;;;;20.10;10.60;;;7.20;99.90;;;;;;4958310;28;36222;-79
2023/03/20 05:54:16;;;;;;;25.67;11.10;;;7.20;99.90;;;;;;4948113;28;37451;-80
2023/03/20 05:56:42;;;;;;;25.80;10.70;;;7.20;99.90;;;;;;4954961;28;38787;-79
2023/03/20 05:59:10;;;;;;;25.13;12.07;;;7.20;99.90;;;;;;4976449;28;38875;-80
2023/03/20 06:01:36;;;;;;;24.47;11.67;;;7.20;99.90;;;;;;4988822;28;38802;-80
2023/03/20 06:04:02;;;;;;;23.43;12.60;;;7.30;99.90;;;;;;4977442;28;36464;-80
2023/03/20 06:06:29;;;;;;;20.70;10.60;;;7.20;99.90;;;;;;4975522;28;37810;-81
2023/03/20 06:08:55;;;;;;;25.20;11.07;;;7.20;99.90;;;;;;4982611;28;37747;-81
2023/03/20 06:11:21;;;;;;;26.17;10.47;;;7.20;99.90;;;;;;4975552;28;39308;-80
2023/03/20 06:13:50;;;;;;;20.80;11.00;;;7.20;99.90;;;;;;4973624;28;36101;-80
2023/03/20 06:16:16;;;;;;;20.63;9.93;;;7.20;99.90;;;;;;4971880;28;38031;-80
2023/03/20 06:18:42;;;;;;;22.57;10.57;;;7.20;99.90;;;;;;4986409;28;37094;-81
2023/03/20 06:21:08;;;;;;;20.57;9.90;;;7.20;99.90;;;;;;4969710;28;37382;-79
2023/03/20 06:23:35;;;;;;;22.50;9.20;;;7.20;99.90;;;;;;4965733;28;36468;-80
2023/03/20 06:26:01;;;;;;;21.73;9.20;;;7.30;99.90;;;;;;4962751;28;37762;-79
2023/03/20 06:28:27;;;;;;;16.47;8.73;;;7.30;99.90;;;;;;4986337;28;46831;-79
2023/03/20 06:30:53;;;;;;;18.93;8.37;;;7.30;99.90;;;;;;4984163;28;37921;-77
2023/03/20 06:33:19;;;;;;;23.70;9.17;;;7.40;99.90;;;;;;4959566;28;36906;-78
2023/03/20 06:35:47;;;;;;;22.20;8.20;;;7.40;99.90;;;;;;4966597;28;20091;-78
2023/03/20 06:38:13;;;;;;;20.67;7.20;;;7.50;99.90;;;;;;4962169;28;39306;-78
2023/03/20 06:40:40;;;;;;;18.83;7.70;;;7.50;99.90;;;;;;4969930;28;38382;-78
2023/03/20 06:43:06;;;;;;;20.60;7.57;;;7.50;99.90;;;;;;4978882;28;38107;-78
2023/03/20 06:45:32;;;;;;;21.67;7.87;;;7.60;99.90;;;;;;4976435;28;39898;-78
2023/03/20 06:47:58;;;;;;;20.33;7.10;;;7.50;99.90;;;;;;4964616;28;37123;-78
2023/03/20 06:50:25;;;;;;;15.30;7.37;;;7.60;99.90;;;;;;4964980;28;36866;-79
2023/03/20 06:52:51;;;;;;;18.13;7.37;;;7.60;99.90;;;;;;4985929;28;36765;-79
2023/03/20 06:55:17;;;;;;;24.27;7.27;;;7.60;99.90;;;;;;4993141;28;39027;-79
2023/03/20 06:57:44;;;;;;;16.83;6.73;;;7.60;99.90;;;;;;4967663;28;37363;-79
2023/03/20 07:00:10;;;;;;;15.90;7.07;;;7.60;99.90;;;;;;4970687;28;37199;-79
2023/03/20 07:02:37;;;;;;;15.93;6.00;;;7.60;99.90;;;;;;4994371;28;36671;-80
2023/03/20 07:05:04;;;;;;;14.73;5.80;;;7.60;99.90;;;;;;4982196;28;38618;-83
2023/03/20 07:07:30;;;;;;;18.67;6.37;;;7.60;99.90;;;;;;4989120;28;39744;-80
2023/03/20 07:09:56;;;;;;;17.87;6.30;;;7.60;99.90;;;;;;4992651;28;37421;-80
2023/03/20 07:12:27;;;;;;;24.90;6.77;;;7.80;99.90;;;;;;4998894;28;38279;-79
2023/03/20 07:14:53;;;;;;;21.93;7.13;;;7.70;99.90;;;;;;4989918;28;37761;-80
2023/03/20 07:17:19;;;;;;;18.73;6.73;;;7.80;99.90;;;;;;4983373;28;39124;-79
2023/03/20 07:19:45;;;;;;;17.00;7.00;;;7.80;99.90;;;;;;4988916;28;37645;-80
2023/03/20 07:22:22;;;;;;;20.97;7.00;;;7.80;99.90;;;;;;4986439;28;37488;-80
2023/03/20 07:24:48;;;;;;;17.97;6.80;;;7.80;99.90;;;;;;4983414;28;37625;-80
2023/03/20 07:27:15;;;;;;;17.77;7.07;;;7.80;99.90;;;;;;5005277;28;38603;-80
2023/03/20 07:29:41;;;;;;;17.73;6.93;;;7.90;99.90;;;;;;4987132;28;37161;-79
2023/03/20 07:32:07;;;;;;;19.13;7.73;;;7.80;99.90;;;;;;5002574;28;37130;-80
2023/03/20 07:34:33;;;;;;;22.03;8.73;;;7.80;99.90;;;;;;5008368;28;38083;-80
2023/03/20 07:37:00;;;;;;;24.43;7.80;;;7.80;99.90;;;;;;5001643;28;38489;-79
2023/03/20 07:39:26;;;;;;;21.03;7.30;;;7.80;99.90;;;;;;5004316;28;38914;-79
2023/03/20 07:41:52;;;;;;;19.60;7.33;;;7.80;99.90;;;;;;4967191;28;35900;-77
2023/03/20 07:44:18;;;;;;;20.83;7.47;;;7.80;99.90;;;;;;4967080;28;37793;-79
2023/03/20 07:46:47;;;;;;;19.17;7.87;;;7.80;99.90;;;;;;4968498;28;38374;-79
2023/03/20 07:49:17;;;;;;;18.53;7.60;;;7.70;99.90;;;;;;4968267;28;37520;-79
2023/03/20 07:51:47;;;;;;;18.63;7.40;;;7.70;99.90;;;;;;4974360;28;36121;-79
2023/03/20 07:54:14;;;;;;;21.93;8.37;;;7.70;99.90;;;;;;4976460;28;38739;-80
2023/03/20 07:56:40;;;;;;;18.90;8.67;;;7.70;99.90;;;;;;4988233;28;37725;-80
2023/03/20 07:59:07;;;;;;;19.77;8.17;;;7.70;99.90;;;;;;4989455;28;37470;-81
2023/03/20 08:01:33;;;;;;;23.07;9.00;;;7.60;99.90;;;;;;5003240;28;37315;-81
2023/03/20 08:03:59;;;;;;;32.03;8.50;;;7.50;99.90;;;;;;5224660;23;37648;-83
2023/03/20 08:06:26;;;;;;;18.30;8.10;;;7.50;99.90;;;;;;4981753;28;38085;-83
2023/03/20 08:08:53;;;;;;;25.07;9.63;;;7.60;99.90;;;;;;5248652;23;38050;-82
2023/03/20 09:14:30;;;;;;;26.93;11.77;;;7.70;99.90;;;;;;6102630;23;20018;31
2023/03/20 09:22:08;;;;;;;25.57;12.17;;;8.00;99.90;;;;;;5715538;23;20048;-81
2023/03/20 09:47:07;;;;;;;26.70;13.57;;;8.70;99.90;;;;;;6003946;23;20221;-82
2023/03/20 09:54:51;;;;;;;27.37;13.67;;;8.60;99.90;;;;;;5591967;23;20055;-82
2023/03/20 10:10:20;;;;;;;33.90;14.17;;;8.60;99.90;;;;;;5699769;23;20047;-84
2023/03/20 10:28:38;;;;;;;25.63;11.43;;;8.70;99.90;;;;;;5532217;23;20047;-82
2023/03/20 10:42:02;;;;;;;26.17;12.20;;;8.80;99.90;;;;;;5675105;23;20041;-83
2023/03/20 11:00:21;;;;;;;23.77;11.43;;;9.20;99.90;;;;;;5558448;23;20032;-83
2023/03/20 11:02:47;;;;;;;33.53;13.00;;;9.20;99.90;;;;;;4942855;28;48352;-82
2023/03/20 11:14:36;;;;;;;24.25;11.75;;;9.50;99.90;;;;;;5923015;23;19920;31
2023/03/20 11:22:30;;;;;;;19.10;10.73;;;9.60;99.90;;;;;;5906796;23;20051;-81
2023/03/20 11:28:13;;;;;;;27.10;10.20;;;9.60;99.90;;;;;;5444669;23;20036;-83
2023/03/20 11:30:40;;;;;;;21.23;9.67;;;9.60;99.90;;;;;;5267981;23;48193;-82
2023/03/20 11:33:47;;;;;;;24.30;10.33;;;9.70;99.90;;;;;;4981353;28;39344;-82
2023/03/20 11:36:25;;;;;;;22.07;10.30;;;9.90;99.90;;;;;;4971835;28;37197;-82
2023/03/20 11:38:52;;;;;;;18.93;9.60;;;10.00;99.90;;;;;;4980077;28;39168;-80
2023/03/20 11:46:31;;;;;;;22.77;10.07;;;9.80;99.90;;;;;;6081076;23;20396;-80
2023/03/20 11:59:21;;;;;;;28.73;10.13;;;9.80;99.90;;;;;;5730251;23;20026;-80
2023/03/20 12:01:51;;;;;;;31.13;10.43;;;9.70;99.90;;;;;;5050915;23;38362;-81
2023/03/20 12:04:49;;;;;;;24.60;9.57;;;9.70;99.90;;;;;;4986069;28;39324;-81
2023/03/20 12:07:31;;;;;;;26.87;10.47;;;9.70;99.90;;;;;;4960536;28;37540;-80
2023/03/20 12:10:06;;;;;;;21.45;11.05;;;9.60;99.90;;;;;;4961924;28;39900;-80
2023/03/20 12:12:41;;;;;;;76.60;27.63;;;9.50;99.90;;;;;;4934805;28;49263;-79
2023/03/20 12:15:31;;;;;;;45.97;16.23;;;9.60;99.90;;;;;;4951212;28;37652;-78
2023/03/20 12:18:20;;;;;;;28.37;12.13;;;9.60;99.90;;;;;;4954001;28;37332;-78
2023/03/20 12:21:16;;;;;;;27.80;12.17;;;9.50;99.90;;;;;;4932448;28;47259;-80
2023/03/20 12:23:47;;;;;;;30.13;12.17;;;9.50;99.90;;;;;;4943698;28;46861;-78
2023/03/20 12:26:17;;;;;;;28.30;12.93;;;9.40;99.90;;;;;;4953676;28;37987;-79
2023/03/20 12:28:51;;;;;;;24.40;12.63;;;9.30;99.90;;;;;;4962038;28;37862;-83
2023/03/20 12:31:23;;;;;;;30.80;14.07;;;9.30;99.90;;;;;;4969903;28;38677;-82
2023/03/20 12:34:03;;;;;;;36.53;15.05;;;9.20;99.90;;;;;;4972655;28;38351;-82
2023/03/20 12:36:40;;;;;;;35.17;14.53;;;9.10;99.90;;;;;;4933720;28;45678;-78
2023/03/20 12:39:13;;;;;;;36.63;14.93;;;9.00;99.90;;;;;;4956096;28;38121;-81
2023/03/20 12:42:08;;;;;;;31.30;13.73;;;9.00;99.90;;;;;;4959107;28;37890;-82
2023/03/20 12:53:20;;;;;;;30.60;16.83;;;9.00;99.90;;;;;;5430581;23;20024;-82
2023/03/20 12:58:50;;;;;;;33.33;16.47;;;9.00;99.90;;;;;;5054123;23;20032;-81
2023/03/20 13:01:52;;;;;;;29.20;17.63;;;9.00;99.90;;;;;;4944899;28;35965;-82
2023/03/20 13:04:43;;;;;;;33.17;16.67;;;9.00;99.90;;;;;;4963326;28;37856;-82
2023/03/20 13:07:16;;;;;;;27.23;16.63;;;9.00;99.90;;;;;;4966856;28;38703;-80
2023/03/20 13:12:59;;;;;;;32.40;17.50;;;9.10;99.90;;;;;;5649222;23;20056;-79
2023/03/20 13:20:50;;;;;;;29.97;16.60;;;9.10;99.90;;;;;;5188237;23;20957;-80
2023/03/20 17:23:53;;;;;;;21.60;15.10;;;10.30;99.90;;;;;;6104083;23;20029;31
2023/03/20 17:26:43;;;;;;;17.40;12.77;;;10.30;99.90;;;;;;4953678;28;35946;-81
2023/03/20 17:29:13;;;;;;;18.67;11.93;;;10.20;99.90;;;;;;5312400;23;42699;-81
2023/03/20 17:34:47;;;;;;;20.27;12.33;;;10.30;99.90;;;;;;5345152;23;19918;-83
2023/03/20 17:50:18;;;;;;;19.30;13.43;;;10.20;99.90;;;;;;5748194;23;20086;-80
2023/03/20 17:52:44;;;;;;;18.87;14.07;;;10.20;99.90;;;;;;5374663;23;35611;-77
2023/03/20 17:55:11;;;;;;;15.43;12.60;;;10.20;99.90;;;;;;5255668;23;38830;-80
2023/03/20 18:15:57;;;;;;;20.00;17.77;;;10.10;99.90;;;;;;5195506;23;20055;-81
2023/03/20 18:18:24;;;;;;;17.73;14.77;;;10.20;99.90;;;;;;5694409;23;39420;-80
2023/03/20 18:20:51;;;;;;;21.43;14.87;;;10.10;99.90;;;;;;4974475;28;39105;-81
2023/03/20 18:23:23;;;;;;;20.93;16.37;;;10.10;99.90;;;;;;4960626;28;38469;-81
2023/03/20 18:25:49;;;;;;;21.10;16.95;;;10.10;99.90;;;;;;4946813;28;41296;-81
2023/03/20 18:28:21;;;;;;;19.33;14.93;;;10.10;99.90;;;;;;4962050;28;37155;-81
2023/03/20 18:30:59;;;;;;;16.73;14.55;;;10.10;99.90;;;;;;4960414;28;38654;-82
2023/03/20 18:43:57;;;;;;;21.48;15.63;;;10.20;99.90;;;;;;4958498;28;19919;-81
2023/03/20 18:46:32;;;;;;;18.27;14.57;;;10.20;99.90;;;;;;4948571;28;38222;-82
2023/03/20 18:49:02;;;;;;;21.37;16.13;;;10.20;99.90;;;;;;4940465;28;37254;-81
2023/03/20 19:13:04;;;;;;;28.37;20.87;;;10.10;99.90;;;;;;6048804;23;20014;-80
2023/03/20 19:15:37;;;;;;;33.60;24.20;;;10.20;99.90;;;;;;5284826;23;36513;-82
2023/03/20 19:19:03;;;;;;;;;;;;;;;;;;;;;
2023/03/20 19:24:03;;;;;;;23.70;15.20;;;10.10;99.90;;;;;;5941107;23;20019;-82
2023/03/20 19:29:10;;;;;;;28.93;18.90;;;10.10;99.90;;;;;;5081216;23;20038;-81
2023/03/20 19:31:36;;;;;;;22.63;15.37;;;10.10;99.90;;;;;;4991906;28;37221;-80
2023/03/20 19:34:02;;;;;;;23.77;17.00;;;10.10;99.90;;;;;;4993647;28;38782;-76
2023/03/20 19:44:17;;;;;;;29.77;20.83;;;10.10;99.90;;;;;;5866038;23;20039;-81
2023/03/20 19:46:51;;;;;;;26.57;20.23;;;10.10;99.90;;;;;;4978739;28;40851;-81
2023/03/20 19:49:19;;;;;;;33.60;22.53;;;10.10;99.90;;;;;;5241410;23;38259;-81
2023/03/20 19:54:21;;;;;;;31.33;21.10;;;10.10;99.90;;;;;;5518765;23;21045;-80
2023/03/20 20:25:32;;;;;;;24.70;21.80;;;10.00;99.90;;;;;;5044024;23;20066;-79
2023/03/20 20:28:01;;;;;;;22.57;20.13;;;10.00;99.90;;;;;;5404629;23;37908;-81
2023/03/20 20:30:59;;;;;;;26.67;20.60;;;10.00;99.90;;;;;;4980659;28;48133;-81
2023/03/20 20:33:34;;;;;;;30.60;21.50;;;10.00;99.90;;;;;;4979190;28;38044;-83
2023/03/20 20:36:13;;;;;;;27.90;20.10;;;10.00;99.90;;;;;;4982811;28;37625;-84
2023/03/20 20:39:16;;;;;;;21.03;18.83;;;9.90;99.90;;;;;;4986512;28;48352;-82
2023/03/20 20:41:42;;;;;;;30.58;21.15;;;10.00;99.90;;;;;;4983760;28;48529;-82
2023/03/20 20:44:39;;;;;;;26.60;22.10;;;9.90;99.90;;;;;;4984331;28;39394;-81
2023/03/20 20:47:17;;;;;;;26.50;21.73;;;9.90;99.90;;;;;;4989975;28;37415;-82
2023/03/20 20:55:20;;;;;;;27.83;19.93;;;9.90;99.90;;;;;;5431029;23;20047;-83
2023/03/20 20:57:51;;;;;;;30.70;23.23;;;9.90;99.90;;;;;;5635317;23;48876;-82
2023/03/20 21:03:29;;;;;;;;;;;9.90;99.90;;;;;;5039550;23;20061;-81
2023/03/20 21:06:16;;;;;;;24.30;20.27;;;9.90;99.90;;;;;;4993252;28;37883;-81
2023/03/20 21:08:45;;;;;;;25.27;20.83;;;9.90;99.90;;;;;;5609792;23;48363;-83
2023/03/20 21:17:36;;;;;;;30.30;22.27;;;9.90;99.90;;;;;;6051498;23;19929;31
2023/03/20 21:31:37;;;;;;;29.90;22.77;;;9.90;99.90;;;;;;6021364;23;20026;-83
2023/03/20 21:41:52;;;;;;;35.77;23.03;;;9.80;99.90;;;;;;5300730;23;20040;-80
2023/03/20 21:44:18;;;;;;;29.37;20.70;;;9.80;99.90;;;;;;5253338;23;38891;-82
2023/03/20 21:46:45;;;;;;;31.40;22.93;;;9.80;99.90;;;;;;4980973;28;39323;-83
2023/03/20 21:49:11;;;;;;;25.13;20.47;;;9.80;99.90;;;;;;4968295;28;36812;-80
2023/03/20 21:51:39;;;;;;;28.67;22.33;;;9.80;99.90;;;;;;5205327;23;38225;-82
2023/03/20 21:54:08;;;;;;;30.60;23.13;;;9.80;99.90;;;;;;4964259;28;37617;-81
2023/03/20 21:56:45;;;;;;;24.40;20.07;;;9.80;99.90;;;;;;4968184;28;40255;-82
2023/03/20 21:59:11;;;;;;;33.93;21.37;;;9.80;99.90;;;;;;4971128;28;37990;-82
2023/03/20 22:04:13;;;;;;;22.77;18.87;;;9.80;99.90;;;;;;5693293;23;20046;-80
2023/03/20 22:06:42;;;;;;;25.27;20.13;;;9.80;99.90;;;;;;4995730;28;39866;-82
2023/03/20 22:11:44;;;;;;;27.70;21.07;;;9.70;99.90;;;;;;5191360;23;20314;-81
2023/03/20 22:14:10;;;;;;;29.93;22.60;;;9.70;99.90;;;;;;4949483;28;40009;-81
2023/03/20 22:16:36;;;;;;;31.50;22.27;;;9.80;99.90;;;;;;4941712;28;39873;-80
2023/03/20 22:19:03;;;;;;;28.33;22.23;;;9.80;99.90;;;;;;4940336;28;37092;-81
2023/03/20 22:21:30;;;;;;;26.17;22.27;;;9.80;99.90;;;;;;4939286;28;36180;-81
2023/03/20 22:23:56;;;;;;;27.00;21.93;;;9.80;99.90;;;;;;4952685;28;39085;-81
2023/03/20 22:26:23;;;;;;;28.50;23.23;;;9.80;99.90;;;;;;4950826;28;38751;-80
2023/03/20 22:28:49;;;;;;;24.53;21.43;;;9.70;99.90;;;;;;4946790;28;36707;-81
2023/03/20 22:31:16;;;;;;;26.03;23.23;;;9.80;99.90;;;;;;4940276;28;37335;-80
2023/03/20 22:33:46;;;;;;;34.70;25.67;;;9.70;99.90;;;;;;4948333;28;39445;-80
2023/03/20 22:36:15;;;;;;;31.53;24.30;;;9.80;99.90;;;;;;4938864;28;39325;-79
2023/03/20 22:38:43;;;;;;;28.03;23.43;;;9.80;99.90;;;;;;4928625;29;36935;-80
2023/03/20 22:41:11;;;;;;;30.77;23.63;;;9.80;99.90;;;;;;4932383;28;36653;-81
2023/03/20 22:43:38;;;;;;;34.47;24.57;;;9.70;99.90;;;;;;4932168;28;37483;-81
2023/03/20 22:46:04;;;;;;;32.03;24.00;;;9.80;99.90;;;;;;4932568;29;38577;-80
2023/03/20 22:48:30;;;;;;;33.33;23.83;;;9.70;99.90;;;;;;4942211;28;38248;-81
2023/03/20 22:50:56;;;;;;;42.03;27.77;;;9.70;99.90;;;;;;4948194;28;37568;-80
2023/03/20 22:53:22;;;;;;;32.93;26.33;;;9.70;99.90;;;;;;4932581;28;37272;-81